sensor_id;sensor_type;location;lat;lon;timestamp;temperature;humidity
23405;DHT22;11875;49.356;2.718;2023-07-29T00:00:55;22.20;99.90
23405;DHT22;11875;49.356;2.718;2023-07-29T00:03:21;22.10;99.90
23405;DHT22;11875;49.356;2.718;2023-07-29T00:05:48;22.20;99.90
23405;DHT22;11875;49.356;2.718;2023-07-29T00:08:13;22.20;99.90
23405;DHT22;11875;49.356;2.718;2023-07-29T00:10:39;22.30;99.90
23405;DHT22;11875;49.356;2.718;2023-07-29T00:13:05;22.20;99.90
23405;DHT22;11875;49.356;2.718;2023-07-29T00:15:31;22.20;99.90
23405;DHT22;11875;49.356;2.718;2023-07-29T00:17:57;22.10;99.90
23405;DHT22;11875;49.356;2.718;2023-07-29T00:20:23;22.10;99.90
23405;DHT22;11875;49.356;2.718;2023-07-29T00:22:48;22.10;99.90
23405;DHT22;11875;49.356;2.718;2023-07-29T00:25:20;22.10;99.90
23405;DHT22;11875;49.356;2.718;2023-07-29T00:27:46;22.10;99.90
23405;DHT22;11875;49.356;2.718;2023-07-29T00:30:11;22.10;99.90
23405;DHT22;11875;49.356;2.718;2023-07-29T00:32:37;22.00;99.90
23405;DHT22;11875;49.356;2.718;2023-07-29T00:35:03;22.00;99.90
23405;DHT22;11875;49.356;2.718;2023-07-29T00:37:29;22.00;99.90
23405;DHT22;11875;49.356;2.718;2023-07-29T00:39:56;22.00;99.90
23405;DHT22;11875;49.356;2.718;2023-07-29T00:42:21;22.00;99.90
23405;DHT22;11875;49.356;2.718;2023-07-29T00:44:47;21.90;99.90
23405;DHT22;11875;49.356;2.718;2023-07-29T00:47:15;21.80;99.90
23405;DHT22;11875;49.356;2.718;2023-07-29T00:49:42;21.90;99.90
23405;DHT22;11875;49.356;2.718;2023-07-29T00:52:08;21.80;99.90
23405;DHT22;11875;49.356;2.718;2023-07-29T00:54:38;21.80;99.90
23405;DHT22;11875;49.356;2.718;2023-07-29T00:57:03;21.90;99.90
23405;DHT22;11875;49.356;2.718;2023-07-29T00:59:30;21.90;99.90
23405;DHT22;11875;49.356;2.718;2023-07-29T01:01:57;21.90;99.90
23405;DHT22;11875;49.356;2.718;2023-07-29T01:04:23;21.90;99.90
23405;DHT22;11875;49.356;2.718;2023-07-29T01:08:16;21.80;99.90
23405;DHT22;11875;49.356;2.718;2023-07-29T01:12:58;21.70;99.90
23405;DHT22;11875;49.356;2.718;2023-07-29T01:15:41;21.70;99.90
23405;DHT22;11875;49.356;2.718;2023-07-29T01:18:18;21.70;99.90
23405;DHT22;11875;49.356;2.718;2023-07-29T01:20:47;21.80;99.90
23405;DHT22;11875;49.356;2.718;2023-07-29T01:23:13;21.80;99.90
23405;DHT22;11875;49.356;2.718;2023-07-29T01:25:38;21.80;99.90
23405;DHT22;11875;49.356;2.718;2023-07-29T01:28:04;21.90;99.90
23405;DHT22;11875;49.356;2.718;2023-07-29T01:30:37;21.90;99.90
23405;DHT22;11875;49.356;2.718;2023-07-29T01:33:16;21.90;99.90
23405;DHT22;11875;49.356;2.718;2023-07-29T01:35:48;22.00;99.90
23405;DHT22;11875;49.356;2.718;2023-07-29T01:38:24;22.00;99.90
23405;DHT22;11875;49.356;2.718;2023-07-29T01:40:50;22.00;99.90
23405;DHT22;11875;49.356;2.718;2023-07-29T01:43:16;22.00;99.90
23405;DHT22;11875;49.356;2.718;2023-07-29T01:45:44;22.00;99.90
23405;DHT22;11875;49.356;2.718;2023-07-29T01:48:09;22.00;99.90
23405;DHT22;11875;49.356;2.718;2023-07-29T01:50:35;21.90;99.90
23405;DHT22;11875;49.356;2.718;2023-07-29T01:53:01;21.80;99.90
23405;DHT22;11875;49.356;2.718;2023-07-29T01:55:26;21.90;99.90
23405;DHT22;11875;49.356;2.718;2023-07-29T01:57:52;23.00;99.90
23405;DHT22;11875;49.356;2.718;2023-07-29T02:00:18;21.80;99.90
23405;DHT22;11875;49.356;2.718;2023-07-29T02:02:44;21.70;99.90
23405;DHT22;11875;49.356;2.718;2023-07-29T02:05:21;21.60;99.90
23405;DHT22;11875;49.356;2.718;2023-07-29T02:07:46;21.50;99.90
23405;DHT22;11875;49.356;2.718;2023-07-29T02:10:12;21.50;99.90
23405;DHT22;11875;49.356;2.718;2023-07-29T02:12:37;21.50;99.90
23405;DHT22;11875;49.356;2.718;2023-07-29T02:15:04;21.50;99.90
23405;DHT22;11875;49.356;2.718;2023-07-29T02:17:30;21.40;99.90
23405;DHT22;11875;49.356;2.718;2023-07-29T02:19:56;21.40;99.90
23405;DHT22;11875;49.356;2.718;2023-07-29T02:22:22;21.50;99.90
23405;DHT22;11875;49.356;2.718;2023-07-29T02:24:47;21.50;99.90
23405;DHT22;11875;49.356;2.718;2023-07-29T02:27:13;21.50;99.90
23405;DHT22;11875;49.356;2.718;2023-07-29T02:29:38;21.50;99.90
23405;DHT22;11875;49.356;2.718;2023-07-29T02:32:04;21.40;99.90
23405;DHT22;11875;49.356;2.718;2023-07-29T02:34:30;21.40;99.90
23405;DHT22;11875;49.356;2.718;2023-07-29T02:36:55;21.40;99.90
23405;DHT22;11875;49.356;2.718;2023-07-29T02:39:21;21.40;99.90
23405;DHT22;11875;49.356;2.718;2023-07-29T02:41:47;21.30;99.90
23405;DHT22;11875;49.356;2.718;2023-07-29T02:44:12;21.30;99.90
23405;DHT22;11875;49.356;2.718;2023-07-29T02:46:38;21.40;99.90
23405;DHT22;11875;49.356;2.718;2023-07-29T02:49:04;21.40;99.90
23405;DHT22;11875;49.356;2.718;2023-07-29T02:51:30;21.40;99.90
23405;DHT22;11875;49.356;2.718;2023-07-29T02:53:56;21.30;99.90
23405;DHT22;11875;49.356;2.718;2023-07-29T02:56:21;21.30;99.90
23405;DHT22;11875;49.356;2.718;2023-07-29T02:58:47;21.40;99.90
23405;DHT22;11875;49.356;2.718;2023-07-29T03:01:12;21.40;99.90
23405;DHT22;11875;49.356;2.718;2023-07-29T03:03:39;21.40;99.90
23405;DHT22;11875;49.356;2.718;2023-07-29T03:06:07;21.40;99.90
23405;DHT22;11875;49.356;2.718;2023-07-29T03:08:33;21.30;99.90
23405;DHT22;11875;49.356;2.718;2023-07-29T03:11:04;21.30;99.90
23405;DHT22;11875;49.356;2.718;2023-07-29T03:13:30;21.30;99.90
23405;DHT22;11875;49.356;2.718;2023-07-29T03:16:13;21.30;99.90
23405;DHT22;11875;49.356;2.718;2023-07-29T03:18:40;21.30;99.90
23405;DHT22;11875;49.356;2.718;2023-07-29T03:21:06;21.30;99.90
23405;DHT22;11875;49.356;2.718;2023-07-29T03:23:32;21.20;99.90
23405;DHT22;11875;49.356;2.718;2023-07-29T03:26:00;21.20;99.90
23405;DHT22;11875;49.356;2.718;2023-07-29T03:28:28;21.10;99.90
23405;DHT22;11875;49.356;2.718;2023-07-29T03:30:55;21.10;99.90
23405;DHT22;11875;49.356;2.718;2023-07-29T03:33:21;21.00;99.90
23405;DHT22;11875;49.356;2.718;2023-07-29T03:35:47;21.00;99.90
23405;DHT22;11875;49.356;2.718;2023-07-29T03:38:12;20.90;99.90
23405;DHT22;11875;49.356;2.718;2023-07-29T03:40:39;20.70;99.90
23405;DHT22;11875;49.356;2.718;2023-07-29T03:43:04;20.60;99.90
23405;DHT22;11875;49.356;2.718;2023-07-29T03:45:30;20.50;99.90
23405;DHT22;11875;49.356;2.718;2023-07-29T03:47:56;20.50;99.90
23405;DHT22;11875;49.356;2.718;2023-07-29T03:50:22;20.50;99.90
23405;DHT22;11875;49.356;2.718;2023-07-29T03:52:47;20.40;99.90
23405;DHT22;11875;49.356;2.718;2023-07-29T03:55:13;20.40;99.90
23405;DHT22;11875;49.356;2.718;2023-07-29T03:57:39;20.30;99.90
23405;DHT22;11875;49.356;2.718;2023-07-29T04:00:05;20.40;99.90
23405;DHT22;11875;49.356;2.718;2023-07-29T04:02:31;20.40;99.90
23405;DHT22;11875;49.356;2.718;2023-07-29T04:04:56;20.40;99.90
23405;DHT22;11875;49.356;2.718;2023-07-29T04:07:22;20.40;99.90
23405;DHT22;11875;49.356;2.718;2023-07-29T04:09:48;20.30;99.90
23405;DHT22;11875;49.356;2.718;2023-07-29T04:12:14;20.20;99.90
23405;DHT22;11875;49.356;2.718;2023-07-29T04:14:40;20.20;99.90
23405;DHT22;11875;49.356;2.718;2023-07-29T04:17:07;20.20;99.90
23405;DHT22;11875;49.356;2.718;2023-07-29T04:19:33;20.20;99.90
23405;DHT22;11875;49.356;2.718;2023-07-29T04:21:58;20.10;99.90
23405;DHT22;11875;49.356;2.718;2023-07-29T04:24:24;20.10;99.90
23405;DHT22;11875;49.356;2.718;2023-07-29T04:26:50;20.10;99.90
23405;DHT22;11875;49.356;2.718;2023-07-29T04:29:15;20.00;99.90
23405;DHT22;11875;49.356;2.718;2023-07-29T04:31:41;20.10;99.90
23405;DHT22;11875;49.356;2.718;2023-07-29T04:34:08;20.10;99.90
23405;DHT22;11875;49.356;2.718;2023-07-29T04:36:34;20.00;99.90
23405;DHT22;11875;49.356;2.718;2023-07-29T04:39:00;19.90;99.90
23405;DHT22;11875;49.356;2.718;2023-07-29T04:41:25;19.90;99.90
23405;DHT22;11875;49.356;2.718;2023-07-29T04:43:51;19.90;99.90
23405;DHT22;11875;49.356;2.718;2023-07-29T04:46:17;19.80;99.90
23405;DHT22;11875;49.356;2.718;2023-07-29T04:48:43;19.70;99.90
23405;DHT22;11875;49.356;2.718;2023-07-29T04:51:08;19.80;99.90
23405;DHT22;11875;49.356;2.718;2023-07-29T04:53:34;19.80;99.90
23405;DHT22;11875;49.356;2.718;2023-07-29T04:56:02;20.00;99.90
23405;DHT22;11875;49.356;2.718;2023-07-29T04:58:27;19.90;99.90
23405;DHT22;11875;49.356;2.718;2023-07-29T05:00:58;19.90;99.90
23405;DHT22;11875;49.356;2.718;2023-07-29T05:03:23;19.80;99.90
23405;DHT22;11875;49.356;2.718;2023-07-29T05:05:49;19.70;99.90
23405;DHT22;11875;49.356;2.718;2023-07-29T05:08:16;19.70;99.90
23405;DHT22;11875;49.356;2.718;2023-07-29T05:10:42;19.70;99.90
23405;DHT22;11875;49.356;2.718;2023-07-29T05:13:08;19.60;99.90
23405;DHT22;11875;49.356;2.718;2023-07-29T05:15:33;19.50;99.90
23405;DHT22;11875;49.356;2.718;2023-07-29T05:17:59;19.70;99.90
23405;DHT22;11875;49.356;2.718;2023-07-29T05:20:24;19.80;99.90
23405;DHT22;11875;49.356;2.718;2023-07-29T05:22:50;19.70;99.90
23405;DHT22;11875;49.356;2.718;2023-07-29T05:25:16;19.60;99.90
23405;DHT22;11875;49.356;2.718;2023-07-29T05:27:41;19.70;99.90
23405;DHT22;11875;49.356;2.718;2023-07-29T05:30:07;19.90;99.90
23405;DHT22;11875;49.356;2.718;2023-07-29T05:32:33;19.80;99.90
23405;DHT22;11875;49.356;2.718;2023-07-29T05:34:58;19.80;99.90
23405;DHT22;11875;49.356;2.718;2023-07-29T05:37:24;19.90;99.90
23405;DHT22;11875;49.356;2.718;2023-07-29T05:39:50;19.80;99.90
23405;DHT22;11875;49.356;2.718;2023-07-29T05:42:15;19.70;99.90
23405;DHT22;11875;49.356;2.718;2023-07-29T05:44:41;19.80;99.90
23405;DHT22;11875;49.356;2.718;2023-07-29T05:47:06;19.80;99.90
23405;DHT22;11875;49.356;2.718;2023-07-29T05:49:32;19.90;99.90
23405;DHT22;11875;49.356;2.718;2023-07-29T05:51:57;19.80;99.90
23405;DHT22;11875;49.356;2.718;2023-07-29T05:54:23;19.90;99.90
23405;DHT22;11875;49.356;2.718;2023-07-29T05:56:49;20.00;99.90
23405;DHT22;11875;49.356;2.718;2023-07-29T05:59:14;20.00;99.90
23405;DHT22;11875;49.356;2.718;2023-07-29T06:01:40;20.00;99.90
23405;DHT22;11875;49.356;2.718;2023-07-29T06:04:05;20.00;99.90
23405;DHT22;11875;49.356;2.718;2023-07-29T06:06:31;20.00;99.90
23405;DHT22;11875;49.356;2.718;2023-07-29T06:08:56;19.90;99.90
23405;DHT22;11875;49.356;2.718;2023-07-29T06:11:23;20.00;99.90
23405;DHT22;11875;49.356;2.718;2023-07-29T06:13:49;20.00;99.90
23405;DHT22;11875;49.356;2.718;2023-07-29T06:16:14;19.90;99.90
23405;DHT22;11875;49.356;2.718;2023-07-29T06:18:40;19.90;99.90
23405;DHT22;11875;49.356;2.718;2023-07-29T06:21:05;19.90;99.90
23405;DHT22;11875;49.356;2.718;2023-07-29T06:23:33;20.00;99.90
23405;DHT22;11875;49.356;2.718;2023-07-29T06:25:59;19.80;99.90
23405;DHT22;11875;49.356;2.718;2023-07-29T06:28:26;19.80;99.90
23405;DHT22;11875;49.356;2.718;2023-07-29T06:30:52;19.90;99.90
23405;DHT22;11875;49.356;2.718;2023-07-29T06:33:18;19.90;99.90
23405;DHT22;11875;49.356;2.718;2023-07-29T06:35:43;19.90;99.90
23405;DHT22;11875;49.356;2.718;2023-07-29T06:38:09;20.00;99.90
23405;DHT22;11875;49.356;2.718;2023-07-29T06:40:34;19.90;99.90
23405;DHT22;11875;49.356;2.718;2023-07-29T06:43:00;19.90;99.90
23405;DHT22;11875;49.356;2.718;2023-07-29T06:45:26;19.90;99.90
23405;DHT22;11875;49.356;2.718;2023-07-29T06:47:52;20.00;99.90
23405;DHT22;11875;49.356;2.718;2023-07-29T06:50:17;20.00;99.90
23405;DHT22;11875;49.356;2.718;2023-07-29T06:52:43;20.00;99.90
23405;DHT22;11875;49.356;2.718;2023-07-29T06:55:08;20.00;99.90
23405;DHT22;11875;49.356;2.718;2023-07-29T06:57:34;20.00;99.90
23405;DHT22;11875;49.356;2.718;2023-07-29T07:00:00;20.00;99.90
23405;DHT22;11875;49.356;2.718;2023-07-29T07:02:25;20.00;99.90
23405;DHT22;11875;49.356;2.718;2023-07-29T07:04:51;20.10;99.90
23405;DHT22;11875;49.356;2.718;2023-07-29T07:07:16;20.10;99.90
23405;DHT22;11875;49.356;2.718;2023-07-29T07:09:42;20.20;99.90
23405;DHT22;11875;49.356;2.718;2023-07-29T07:12:08;20.30;99.90
23405;DHT22;11875;49.356;2.718;2023-07-29T07:14:33;20.60;99.90
23405;DHT22;11875;49.356;2.718;2023-07-29T07:16:59;21.00;99.90
23405;DHT22;11875;49.356;2.718;2023-07-29T07:19:24;21.40;99.90
23405;DHT22;11875;49.356;2.718;2023-07-29T07:21:50;21.40;99.90
23405;DHT22;11875;49.356;2.718;2023-07-29T07:24:15;21.40;99.90
23405;DHT22;11875;49.356;2.718;2023-07-29T07:26:41;22.20;99.90
23405;DHT22;11875;49.356;2.718;2023-07-29T07:29:07;21.70;99.90
23405;DHT22;11875;49.356;2.718;2023-07-29T07:31:33;21.80;99.90
23405;DHT22;11875;49.356;2.718;2023-07-29T07:33:59;22.00;99.90
23405;DHT22;11875;49.356;2.718;2023-07-29T07:36:25;21.90;99.90
23405;DHT22;11875;49.356;2.718;2023-07-29T07:38:50;21.80;99.90
23405;DHT22;11875;49.356;2.718;2023-07-29T07:41:16;21.60;99.90
23405;DHT22;11875;49.356;2.718;2023-07-29T07:43:41;21.60;99.90
23405;DHT22;11875;49.356;2.718;2023-07-29T07:46:07;21.60;99.90
23405;DHT22;11875;49.356;2.718;2023-07-29T07:48:32;21.50;99.90
23405;DHT22;11875;49.356;2.718;2023-07-29T07:50:58;21.50;99.90
23405;DHT22;11875;49.356;2.718;2023-07-29T07:53:24;21.60;99.90
23405;DHT22;11875;49.356;2.718;2023-07-29T07:55:51;21.60;99.90
23405;DHT22;11875;49.356;2.718;2023-07-29T07:58:16;21.60;99.90
23405;DHT22;11875;49.356;2.718;2023-07-29T08:00:42;21.70;99.90
23405;DHT22;11875;49.356;2.718;2023-07-29T08:03:08;21.80;99.90
23405;DHT22;11875;49.356;2.718;2023-07-29T08:05:33;21.90;99.90
23405;DHT22;11875;49.356;2.718;2023-07-29T08:07:59;22.10;99.90
23405;DHT22;11875;49.356;2.718;2023-07-29T08:10:25;22.00;99.90
23405;DHT22;11875;49.356;2.718;2023-07-29T08:12:50;22.10;99.90
23405;DHT22;11875;49.356;2.718;2023-07-29T08:15:16;22.00;99.90
23405;DHT22;11875;49.356;2.718;2023-07-29T08:17:41;22.00;99.90
23405;DHT22;11875;49.356;2.718;2023-07-29T08:20:07;22.00;99.90
23405;DHT22;11875;49.356;2.718;2023-07-29T08:22:33;21.80;99.90
23405;DHT22;11875;49.356;2.718;2023-07-29T08:24:58;21.70;99.90
23405;DHT22;11875;49.356;2.718;2023-07-29T08:27:24;21.60;99.90
23405;DHT22;11875;49.356;2.718;2023-07-29T08:29:49;21.50;99.90
23405;DHT22;11875;49.356;2.718;2023-07-29T08:32:15;21.40;99.90
23405;DHT22;11875;49.356;2.718;2023-07-29T08:34:41;21.40;99.90
23405;DHT22;11875;49.356;2.718;2023-07-29T08:37:06;21.30;99.90
23405;DHT22;11875;49.356;2.718;2023-07-29T08:39:32;21.30;99.90
23405;DHT22;11875;49.356;2.718;2023-07-29T08:42:04;21.20;99.90
23405;DHT22;11875;49.356;2.718;2023-07-29T08:44:40;21.30;99.90
23405;DHT22;11875;49.356;2.718;2023-07-29T08:47:06;21.50;99.90
23405;DHT22;11875;49.356;2.718;2023-07-29T08:49:32;21.80;99.90
23405;DHT22;11875;49.356;2.718;2023-07-29T08:51:58;22.10;99.90
23405;DHT22;11875;49.356;2.718;2023-07-29T08:54:25;22.40;99.90
23405;DHT22;11875;49.356;2.718;2023-07-29T08:56:51;22.50;99.90
23405;DHT22;11875;49.356;2.718;2023-07-29T08:59:17;22.50;99.90
23405;DHT22;11875;49.356;2.718;2023-07-29T09:01:43;22.60;99.90
23405;DHT22;11875;49.356;2.718;2023-07-29T09:04:09;22.80;99.90
23405;DHT22;11875;49.356;2.718;2023-07-29T09:06:35;23.10;99.90
23405;DHT22;11875;49.356;2.718;2023-07-29T09:09:02;23.30;99.90
23405;DHT22;11875;49.356;2.718;2023-07-29T09:11:28;23.20;99.90
23405;DHT22;11875;49.356;2.718;2023-07-29T09:13:54;23.20;99.90
23405;DHT22;11875;49.356;2.718;2023-07-29T09:16:20;23.10;99.90
23405;DHT22;11875;49.356;2.718;2023-07-29T09:18:49;23.00;99.90
23405;DHT22;11875;49.356;2.718;2023-07-29T09:21:23;22.90;99.90
23405;DHT22;11875;49.356;2.718;2023-07-29T09:23:50;23.00;99.90
23405;DHT22;11875;49.356;2.718;2023-07-29T09:26:25;23.00;99.90
23405;DHT22;11875;49.356;2.718;2023-07-29T09:28:57;23.10;99.90
23405;DHT22;11875;49.356;2.718;2023-07-29T09:31:25;23.10;99.90
23405;DHT22;11875;49.356;2.718;2023-07-29T09:34:01;23.10;99.90
23405;DHT22;11875;49.356;2.718;2023-07-29T09:36:29;23.20;99.90
23405;DHT22;11875;49.356;2.718;2023-07-29T09:38:56;23.10;99.90
23405;DHT22;11875;49.356;2.718;2023-07-29T09:41:26;23.20;99.90
23405;DHT22;11875;49.356;2.718;2023-07-29T09:44:00;23.20;99.90
23405;DHT22;11875;49.356;2.718;2023-07-29T09:46:32;23.10;99.90
23405;DHT22;11875;49.356;2.718;2023-07-29T09:48:58;23.00;99.90
23405;DHT22;11875;49.356;2.718;2023-07-29T09:51:24;23.00;99.90
23405;DHT22;11875;49.356;2.718;2023-07-29T09:53:51;23.00;99.90
23405;DHT22;11875;49.356;2.718;2023-07-29T09:56:25;23.00;99.90
23405;DHT22;11875;49.356;2.718;2023-07-29T09:58:51;23.00;99.90
23405;DHT22;11875;49.356;2.718;2023-07-29T10:01:17;23.00;99.90
23405;DHT22;11875;49.356;2.718;2023-07-29T10:03:44;22.90;99.90
23405;DHT22;11875;49.356;2.718;2023-07-29T10:06:10;22.90;99.90
23405;DHT22;11875;49.356;2.718;2023-07-29T10:08:36;23.00;99.90
23405;DHT22;11875;49.356;2.718;2023-07-29T10:11:09;23.00;99.90
23405;DHT22;11875;49.356;2.718;2023-07-29T10:13:36;23.10;99.90
23405;DHT22;11875;49.356;2.718;2023-07-29T10:16:02;23.20;99.90
23405;DHT22;11875;49.356;2.718;2023-07-29T10:18:29;23.30;99.90
23405;DHT22;11875;49.356;2.718;2023-07-29T10:20:57;23.40;99.90
23405;DHT22;11875;49.356;2.718;2023-07-29T10:23:25;23.50;99.90
23405;DHT22;11875;49.356;2.718;2023-07-29T10:25:57;23.50;99.90
23405;DHT22;11875;49.356;2.718;2023-07-29T10:28:26;23.60;99.90
23405;DHT22;11875;49.356;2.718;2023-07-29T10:30:54;23.60;99.90
23405;DHT22;11875;49.356;2.718;2023-07-29T10:33:21;23.80;99.90
23405;DHT22;11875;49.356;2.718;2023-07-29T10:35:47;24.00;99.90
23405;DHT22;11875;49.356;2.718;2023-07-29T10:38:12;24.20;99.90
23405;DHT22;11875;49.356;2.718;2023-07-29T10:40:53;24.20;99.90
23405;DHT22;11875;49.356;2.718;2023-07-29T10:43:32;24.30;99.90
23405;DHT22;11875;49.356;2.718;2023-07-29T10:46:16;24.40;99.90
23405;DHT22;11875;49.356;2.718;2023-07-29T10:51:27;24.50;99.90
23405;DHT22;11875;49.356;2.718;2023-07-29T10:53:58;24.50;99.90
23405;DHT22;11875;49.356;2.718;2023-07-29T10:56:32;24.60;99.90
23405;DHT22;11875;49.356;2.718;2023-07-29T11:01:43;24.70;99.90
23405;DHT22;11875;49.356;2.718;2023-07-29T11:17:36;24.80;99.90
23405;DHT22;11875;49.356;2.718;2023-07-29T11:20:03;24.70;99.90
23405;DHT22;11875;49.356;2.718;2023-07-29T11:22:29;24.80;99.90
23405;DHT22;11875;49.356;2.718;2023-07-29T11:24:55;24.80;99.90
23405;DHT22;11875;49.356;2.718;2023-07-29T11:27:21;25.00;99.90
23405;DHT22;11875;49.356;2.718;2023-07-29T11:29:47;25.10;99.90
23405;DHT22;11875;49.356;2.718;2023-07-29T11:32:13;25.20;99.90
23405;DHT22;11875;49.356;2.718;2023-07-29T11:34:38;25.40;99.90
23405;DHT22;11875;49.356;2.718;2023-07-29T11:37:10;25.50;99.90
23405;DHT22;11875;49.356;2.718;2023-07-29T11:39:40;25.70;99.90
23405;DHT22;11875;49.356;2.718;2023-07-29T11:42:06;25.80;99.90
23405;DHT22;11875;49.356;2.718;2023-07-29T11:44:32;25.80;99.90
23405;DHT22;11875;49.356;2.718;2023-07-29T11:46:57;25.70;99.90
23405;DHT22;11875;49.356;2.718;2023-07-29T11:49:23;25.80;99.90
23405;DHT22;11875;49.356;2.718;2023-07-29T11:51:49;25.70;99.90
23405;DHT22;11875;49.356;2.718;2023-07-29T11:54:15;25.70;99.90
23405;DHT22;11875;49.356;2.718;2023-07-29T11:56:41;25.60;99.90
23405;DHT22;11875;49.356;2.718;2023-07-29T11:59:06;25.70;99.90
23405;DHT22;11875;49.356;2.718;2023-07-29T12:01:33;25.90;99.90
23405;DHT22;11875;49.356;2.718;2023-07-29T12:03:59;26.00;99.90
23405;DHT22;11875;49.356;2.718;2023-07-29T12:06:25;26.10;99.90
23405;DHT22;11875;49.356;2.718;2023-07-29T12:08:51;26.30;99.90
23405;DHT22;11875;49.356;2.718;2023-07-29T12:11:17;26.50;99.90
23405;DHT22;11875;49.356;2.718;2023-07-29T12:13:43;26.60;99.90
23405;DHT22;11875;49.356;2.718;2023-07-29T12:16:08;26.80;99.90
23405;DHT22;11875;49.356;2.718;2023-07-29T12:18:35;26.90;99.90
23405;DHT22;11875;49.356;2.718;2023-07-29T12:21:02;26.60;99.90
23405;DHT22;11875;49.356;2.718;2023-07-29T12:23:28;26.60;99.90
23405;DHT22;11875;49.356;2.718;2023-07-29T12:25:59;26.60;99.90
23405;DHT22;11875;49.356;2.718;2023-07-29T12:28:25;26.60;99.90
23405;DHT22;11875;49.356;2.718;2023-07-29T12:30:57;26.60;99.90
23405;DHT22;11875;49.356;2.718;2023-07-29T12:33:36;26.60;99.90
23405;DHT22;11875;49.356;2.718;2023-07-29T12:36:03;26.60;99.90
23405;DHT22;11875;49.356;2.718;2023-07-29T12:38:29;26.60;99.90
23405;DHT22;11875;49.356;2.718;2023-07-29T12:40:55;26.60;99.90
23405;DHT22;11875;49.356;2.718;2023-07-29T12:43:21;26.60;99.90
23405;DHT22;11875;49.356;2.718;2023-07-29T12:45:49;26.40;99.90
23405;DHT22;11875;49.356;2.718;2023-07-29T12:48:14;26.30;99.90
23405;DHT22;11875;49.356;2.718;2023-07-29T12:50:40;26.30;99.90
23405;DHT22;11875;49.356;2.718;2023-07-29T12:53:07;26.20;99.90
23405;DHT22;11875;49.356;2.718;2023-07-29T12:55:33;26.30;99.90
23405;DHT22;11875;49.356;2.718;2023-07-29T12:57:59;26.60;99.90
23405;DHT22;11875;49.356;2.718;2023-07-29T13:00:25;26.90;99.90
23405;DHT22;11875;49.356;2.718;2023-07-29T13:02:50;27.00;99.90
23405;DHT22;11875;49.356;2.718;2023-07-29T13:05:16;27.30;99.90
23405;DHT22;11875;49.356;2.718;2023-07-29T13:07:42;27.30;99.90
23405;DHT22;11875;49.356;2.718;2023-07-29T13:10:09;27.50;99.90
23405;DHT22;11875;49.356;2.718;2023-07-29T13:12:35;27.60;99.90
23405;DHT22;11875;49.356;2.718;2023-07-29T13:15:00;27.40;99.90
23405;DHT22;11875;49.356;2.718;2023-07-29T13:17:26;27.60;99.90
23405;DHT22;11875;49.356;2.718;2023-07-29T13:19:51;27.60;99.90
23405;DHT22;11875;49.356;2.718;2023-07-29T13:22:17;27.50;99.90
23405;DHT22;11875;49.356;2.718;2023-07-29T13:24:43;27.30;99.90
23405;DHT22;11875;49.356;2.718;2023-07-29T13:27:09;27.10;99.90
23405;DHT22;11875;49.356;2.718;2023-07-29T13:29:34;27.20;99.90
23405;DHT22;11875;49.356;2.718;2023-07-29T13:32:00;27.30;99.90
23405;DHT22;11875;49.356;2.718;2023-07-29T13:34:26;27.10;99.90
23405;DHT22;11875;49.356;2.718;2023-07-29T13:36:51;27.10;99.90
23405;DHT22;11875;49.356;2.718;2023-07-29T13:39:17;27.30;99.90
23405;DHT22;11875;49.356;2.718;2023-07-29T13:41:42;27.30;99.90
23405;DHT22;11875;49.356;2.718;2023-07-29T13:44:08;27.40;99.90
23405;DHT22;11875;49.356;2.718;2023-07-29T13:46:33;27.50;99.90
23405;DHT22;11875;49.356;2.718;2023-07-29T13:48:59;27.50;99.90
23405;DHT22;11875;49.356;2.718;2023-07-29T13:51:24;27.50;99.90
23405;DHT22;11875;49.356;2.718;2023-07-29T13:53:50;27.60;99.90
23405;DHT22;11875;49.356;2.718;2023-07-29T13:56:16;27.50;99.90
23405;DHT22;11875;49.356;2.718;2023-07-29T13:58:41;27.00;99.90
23405;DHT22;11875;49.356;2.718;2023-07-29T14:01:07;26.50;99.90
23405;DHT22;11875;49.356;2.718;2023-07-29T14:03:32;25.90;99.90
23405;DHT22;11875;49.356;2.718;2023-07-29T14:05:58;25.40;99.90
23405;DHT22;11875;49.356;2.718;2023-07-29T14:08:23;24.90;99.90
23405;DHT22;11875;49.356;2.718;2023-07-29T14:10:49;24.60;99.90
23405;DHT22;11875;49.356;2.718;2023-07-29T14:13:15;24.00;99.90
23405;DHT22;11875;49.356;2.718;2023-07-29T14:15:41;23.60;99.90
23405;DHT22;11875;49.356;2.718;2023-07-29T14:18:06;23.50;99.90
23405;DHT22;11875;49.356;2.718;2023-07-29T14:20:33;23.50;99.90
23405;DHT22;11875;49.356;2.718;2023-07-29T14:22:59;23.60;99.90
23405;DHT22;11875;49.356;2.718;2023-07-29T14:25:24;23.90;99.90
23405;DHT22;11875;49.356;2.718;2023-07-29T14:27:50;24.10;99.90
23405;DHT22;11875;49.356;2.718;2023-07-29T14:30:16;24.40;99.90
23405;DHT22;11875;49.356;2.718;2023-07-29T14:32:41;24.60;99.90
23405;DHT22;11875;49.356;2.718;2023-07-29T14:35:08;24.70;99.90
23405;DHT22;11875;49.356;2.718;2023-07-29T14:37:34;24.80;99.90
23405;DHT22;11875;49.356;2.718;2023-07-29T14:40:00;24.80;99.90
23405;DHT22;11875;49.356;2.718;2023-07-29T14:42:26;24.80;99.90
23405;DHT22;11875;49.356;2.718;2023-07-29T14:44:52;24.70;99.90
23405;DHT22;11875;49.356;2.718;2023-07-29T14:47:17;24.70;99.90
23405;DHT22;11875;49.356;2.718;2023-07-29T14:49:44;24.80;99.90
23405;DHT22;11875;49.356;2.718;2023-07-29T14:52:10;24.80;99.90
23405;DHT22;11875;49.356;2.718;2023-07-29T14:54:36;24.70;99.90
23405;DHT22;11875;49.356;2.718;2023-07-29T14:57:02;24.70;99.90
23405;DHT22;11875;49.356;2.718;2023-07-29T14:59:27;24.90;99.90
23405;DHT22;11875;49.356;2.718;2023-07-29T15:01:53;25.10;99.90
23405;DHT22;11875;49.356;2.718;2023-07-29T15:04:18;25.10;99.90
23405;DHT22;11875;49.356;2.718;2023-07-29T15:06:44;25.10;99.90
23405;DHT22;11875;49.356;2.718;2023-07-29T15:09:10;25.00;99.90
23405;DHT22;11875;49.356;2.718;2023-07-29T15:11:35;24.90;99.90
23405;DHT22;11875;49.356;2.718;2023-07-29T15:14:02;24.90;99.90
23405;DHT22;11875;49.356;2.718;2023-07-29T15:16:29;24.80;99.90
23405;DHT22;11875;49.356;2.718;2023-07-29T15:18:54;24.80;99.90
23405;DHT22;11875;49.356;2.718;2023-07-29T15:21:20;24.80;99.90
23405;DHT22;11875;49.356;2.718;2023-07-29T15:23:46;24.80;99.90
23405;DHT22;11875;49.356;2.718;2023-07-29T15:26:12;24.80;99.90
23405;DHT22;11875;49.356;2.718;2023-07-29T15:28:37;24.90;99.90
23405;DHT22;11875;49.356;2.718;2023-07-29T15:31:03;25.00;99.90
23405;DHT22;11875;49.356;2.718;2023-07-29T15:33:29;25.10;99.90
23405;DHT22;11875;49.356;2.718;2023-07-29T15:35:54;25.10;99.90
23405;DHT22;11875;49.356;2.718;2023-07-29T15:38:20;25.30;99.90
23405;DHT22;11875;49.356;2.718;2023-07-29T15:40:45;25.50;99.90
23405;DHT22;11875;49.356;2.718;2023-07-29T15:43:14;25.60;99.90
23405;DHT22;11875;49.356;2.718;2023-07-29T15:45:39;25.70;99.90
23405;DHT22;11875;49.356;2.718;2023-07-29T15:48:05;25.70;99.90